Terminal Aerodrome Forecast
Issued by NWS

Home | Current Version | Previous Version | Text Only | Print | Product List | Glossary On
Versions: 1 2 3 4 5 6 7 8 9 10 11 12 13 14
000
FTUS45 KABQ 181005 AAA
TAFSAF
TAF AMD
KSAF 181005Z 1810/1906 29015G27KT P6SM FEW050
     FM181400 35014KT P6SM SKC
     FM182000 25008KT P6SM SKC
     FM190100 VRB05KT P6SM SKC=

USA.gov is the U.S. government's official web portal to all federal, state and local government web resources and services.